createdAt,value
2019-06-01T01:29:01.381Z,0.1
2019-06-01T01:30:01.090Z,0.1
2019-06-01T01:31:12.677Z,0.2
2019-06-01T01:32:01.096Z,0.3
2019-06-01T01:34:01.354Z,0.4
2019-06-01T01:35:01.094Z,0.5
2019-06-01T01:37:01.090Z,0.6
2019-06-01T01:38:01.092Z,0.7
2019-06-01T01:40:01.231Z,0.8
2019-06-01T01:41:01.092Z,0.9
2019-06-01T01:42:01.097Z,1.0
2019-06-01T01:43:01.110Z,1.1
2019-06-01T01:44:01.090Z,1.2
2019-06-01T01:45:01.236Z,1.3
2019-06-01T01:47:01.098Z,1.4
2019-06-01T01:48:01.393Z,1.5
2019-06-01T01:49:02.512Z,1.7
2019-06-01T01:50:02.835Z,1.9
2019-06-01T01:51:01.098Z,2.1
2019-06-01T01:52:01.602Z,2.3
2019-06-01T01:53:01.097Z,2.6
2019-06-01T01:54:01.096Z,2.9
2019-06-01T01:55:01.239Z,3.3
2019-06-01T01:56:01.261Z,3.7
2019-06-01T01:57:02.257Z,4.1
2019-06-01T01:58:01.596Z,4.6
2019-06-01T01:59:01.098Z,5.1
2019-06-01T02:00:01.807Z,5.8
2019-06-01T02:01:16.729Z,6.5
2019-06-01T02:02:01.064Z,7.3
2019-06-01T02:03:02.269Z,8.2
2019-06-01T02:04:01.102Z,9.1
2019-06-01T02:05:02.150Z,10.1
2019-06-01T02:07:02.290Z,11.4
2019-06-01T02:08:01.949Z,12.8
2019-06-01T02:09:06.083Z,14.4
2019-06-01T02:10:01.864Z,16.1
2019-06-01T02:11:01.781Z,18.1
2019-06-01T02:12:01.938Z,20.3
2019-06-01T02:13:02.071Z,22.7
2019-06-01T02:14:02.050Z,25.4
2019-06-01T02:15:02.077Z,28.3
2019-06-01T02:16:02.513Z,31.5
2019-06-01T02:17:02.478Z,34.9
2019-06-01T02:18:02.405Z,38.7
2019-06-01T02:19:02.321Z,43.1
2019-06-01T02:20:02.245Z,48.0
2019-06-01T02:21:02.575Z,53.3
2019-06-01T02:22:01.156Z,59.2
2019-06-01T02:23:01.088Z,65.8
2019-06-01T02:24:01.343Z,73.3
2019-06-01T02:25:02.027Z,81.7
2019-06-01T02:26:01.293Z,90.8
2019-06-01T02:27:01.331Z,100.7
2019-06-01T02:28:01.461Z,111.3
2019-06-01T02:29:01.945Z,123.1
2019-06-01T02:30:03.201Z,135.9
2019-06-01T02:31:02.033Z,149.9
2019-06-01T02:32:01.735Z,165.2
2019-06-01T02:33:02.362Z,181.9
2019-06-01T02:34:03.348Z,200.1
2019-06-01T02:35:02.532Z,219.9
2019-06-01T02:36:02.967Z,241.1
2019-06-01T02:37:02.368Z,263.5
2019-06-01T02:38:02.990Z,286.6
2019-06-01T02:39:03.066Z,310.9
2019-06-01T02:40:03.090Z,337.8
2019-06-01T02:41:03.071Z,368.7
2019-06-01T02:42:01.744Z,404.1
2019-06-01T02:43:01.527Z,444.5
2019-06-01T02:44:01.574Z,488.7
2019-06-01T02:45:01.616Z,534.8
2019-06-01T02:46:02.675Z,581.5
2019-06-01T02:47:01.591Z,628.5
2019-06-01T02:48:01.683Z,676.1
2019-06-01T02:49:02.043Z,725.1
2019-06-01T02:50:01.359Z,776.1
2019-06-01T02:51:01.789Z,829.0
2019-06-01T02:52:01.392Z,883.9
2019-06-01T02:53:01.502Z,942.1
2019-06-01T02:54:01.695Z,1002.5
2019-06-01T02:55:02.161Z,1062.3
2019-06-01T02:56:02.070Z,1121.3
2019-06-01T02:57:02.098Z,1180.1
2019-06-01T02:58:02.228Z,1238.9
2019-06-01T02:59:02.271Z,1299.3
2019-06-01T03:00:01.099Z,1363.0
2019-06-01T03:01:01.268Z,1428.1
2019-06-01T03:02:07.263Z,1493.6
2019-06-01T03:03:01.092Z,1562.6
2019-06-01T03:04:01.367Z,1639.1
2019-06-01T03:05:01.217Z,1724.7
2019-06-01T03:06:01.403Z,1818.6
2019-06-01T03:07:03.707Z,1920.9
2019-06-01T03:08:01.333Z,2037.9
2019-06-01T03:09:01.813Z,2172.9
2019-06-01T03:10:01.099Z,2325.3
2019-06-01T03:11:01.776Z,2493.7
2019-06-01T03:12:02.341Z,2669.8
2019-06-01T03:13:02.081Z,2855.3
2019-06-01T03:14:02.345Z,3052.4
2019-06-01T03:15:02.555Z,3254.9
2019-06-01T03:16:03.278Z,3467.5
2019-06-01T03:17:01.867Z,3703.3
2019-06-01T03:18:01.506Z,3957.1
2019-06-01T03:19:01.829Z,4214.9
2019-06-01T03:20:01.883Z,4468.6
2019-06-01T03:21:01.564Z,4724.4
2019-06-01T03:22:03.644Z,4990.6
2019-06-01T03:23:01.739Z,5284.9
2019-06-01T03:24:01.848Z,5627.2
2019-06-01T03:25:02.023Z,6023.9
2019-06-01T03:26:02.042Z,6468.9
2019-06-01T03:28:02.115Z,6955.3
2019-06-01T03:29:03.212Z,7422.8
2019-06-01T03:30:03.401Z,7894.0
2019-06-01T03:31:01.666Z,8375.7
2019-06-01T03:32:18.892Z,8847.4
2019-06-01T03:33:01.240Z,9300.9
2019-06-01T03:34:01.972Z,9737.8
2019-06-01T03:35:01.087Z,10149.3
2019-06-01T03:36:01.089Z,10528.5
2019-06-01T03:37:01.273Z,10883.5
2019-06-01T03:38:01.091Z,11237.5
2019-06-01T03:39:02.079Z,11604.7
2019-06-01T03:40:01.190Z,11985.5
2019-06-01T03:41:02.065Z,12373.7
2019-06-01T03:42:01.252Z,12764.5
2019-06-01T03:43:02.308Z,13169.1
2019-06-01T03:44:02.404Z,13642.9
2019-06-01T03:45:01.331Z,14125.5
2019-06-01T03:46:02.476Z,14557.7
2019-06-01T03:47:01.569Z,14937.3
2019-06-01T03:48:01.087Z,15210.5
2019-06-01T03:49:01.424Z,15368.9
2019-06-01T03:50:01.109Z,15530.9
2019-06-01T03:51:01.555Z,15721.9
2019-06-01T03:52:02.595Z,15893.9
2019-06-01T03:53:01.721Z,16029.9
2019-06-01T03:54:01.092Z,16120.3
2019-06-01T03:55:01.804Z,16092.7
2019-06-01T03:56:01.615Z,15901.8
2019-06-01T03:57:01.337Z,15644.3
2019-06-01T03:58:01.119Z,15304.3
2019-06-01T03:59:01.094Z,14880.5
2019-06-01T04:00:01.150Z,14450.1
2019-06-01T04:01:01.095Z,14055.3
2019-06-01T04:02:01.324Z,13715.8
2019-06-01T04:03:07.126Z,13466.1
2019-06-01T04:04:01.092Z,13280.1
2019-06-01T04:05:01.258Z,13060.0
2019-06-01T04:06:01.232Z,12782.3
2019-06-01T04:07:01.323Z,12533.3
2019-06-01T04:08:06.098Z,12350.7
2019-06-01T04:09:01.561Z,12124.7
2019-06-01T04:10:01.609Z,11873.7
2019-06-01T04:11:01.428Z,11649.3
2019-06-01T04:12:01.429Z,11423.3
2019-06-01T04:13:01.417Z,11245.3
2019-06-01T04:14:01.503Z,11155.5
2019-06-01T04:15:01.126Z,11115.1
2019-06-01T04:16:01.728Z,11161.1
2019-06-01T04:17:01.962Z,11235.9
2019-06-01T04:18:01.874Z,11355.2
2019-06-01T04:20:02.018Z,11448.9
2019-06-01T04:21:02.323Z,11616.3
2019-06-01T04:22:01.896Z,11891.2
2019-06-01T04:23:06.222Z,12236.6
2019-06-01T04:24:01.846Z,12611.3
2019-06-01T04:25:02.035Z,13080.9
2019-06-01T04:26:02.138Z,13635.2
2019-06-01T04:27:02.037Z,14325.0
2019-06-01T04:28:06.303Z,15210.0
2019-06-01T04:29:02.272Z,16319.6
2019-06-01T04:30:02.506Z,17275.9
2019-06-01T04:31:02.261Z,18029.0
2019-06-01T04:32:02.377Z,18779.5
2019-06-01T04:33:02.502Z,19408.2
2019-06-01T04:34:01.103Z,19902.6
2019-06-01T04:35:01.083Z,20555.3
2019-06-01T04:36:01.088Z,21372.8
2019-06-01T04:37:01.251Z,22054.1
2019-06-01T04:38:01.119Z,22476.6
2019-06-01T04:39:01.106Z,22783.5
2019-06-01T04:40:01.082Z,23132.4
2019-06-01T04:41:01.089Z,23528.9
2019-06-01T04:42:01.224Z,23821.7
2019-06-01T04:43:01.118Z,23919.6
2019-06-01T04:44:01.087Z,23744.8
2019-06-01T04:45:01.096Z,23429.1
2019-06-01T04:46:01.090Z,23099.7
2019-06-01T04:47:01.231Z,22663.7
2019-06-01T04:48:01.119Z,22370.5
2019-06-01T04:49:01.088Z,22320.5
2019-06-01T04:50:01.088Z,22267.5
2019-06-01T04:51:01.093Z,21902.5
2019-06-01T04:52:01.210Z,21668.9
2019-06-01T04:53:06.805Z,21683.5
2019-06-01T04:54:01.090Z,21692.9
2019-06-01T04:55:01.093Z,21505.8
2019-06-01T04:56:01.088Z,21353.1
2019-06-01T04:57:01.297Z,21410.1
2019-06-01T04:58:06.753Z,21505.9
2019-06-01T04:59:01.091Z,21641.3
2019-06-01T05:00:01.101Z,22069.4
2019-06-01T05:01:01.095Z,22753.8
2019-06-01T05:02:01.244Z,23433.7
2019-06-01T05:03:08.501Z,24044.1
2019-06-01T05:04:07.076Z,24480.1
2019-06-01T05:05:01.092Z,25001.3
2019-06-01T05:06:01.097Z,25935.3
2019-06-01T05:07:01.241Z,27202.9
2019-06-01T05:08:01.092Z,28365.7
2019-06-01T05:09:01.158Z,29553.1
2019-06-01T05:10:01.096Z,31003.7
2019-06-01T05:11:05.034Z,32261.3
2019-06-01T05:12:01.311Z,33344.7
2019-06-01T05:13:01.094Z,34618.3
2019-06-01T05:14:07.455Z,36334.9
2019-06-01T05:15:01.104Z,37795.7
2019-06-01T05:16:01.098Z,39202.1
2019-06-01T05:17:01.268Z,40768.7
2019-06-01T05:18:01.095Z,42767.0
2019-06-01T05:19:01.130Z,45291.5
2019-06-01T05:20:01.095Z,47644.7
2019-06-01T05:21:01.104Z,49420.3
2019-06-01T05:22:01.245Z,50833.7
2019-06-01T05:23:01.098Z,52549.1
2019-06-01T05:24:01.133Z,54279.1
2019-06-01T05:25:01.110Z,55833.7
2019-06-01T05:26:01.147Z,57422.5
2019-06-01T05:27:01.244Z,59049.1
2019-06-01T05:28:01.097Z,60414.0
2019-06-01T05:29:01.132Z,61313.1
2019-06-01T05:30:01.107Z,62426.5
2019-06-01T05:31:01.097Z,63481.3
2019-06-01T05:32:01.242Z,64395.3
2019-06-01T05:33:01.097Z,64891.3
2019-06-01T05:36:01.113Z,65170.2
2019-06-01T05:37:01.268Z,65427.0
2019-06-01T05:41:01.099Z,65478.0
2019-06-01T05:43:01.103Z,65507.7
2019-06-01T05:45:01.088Z,65535.0
2019-06-01T06:00:01.087Z,65535.0
2019-06-01T06:15:01.093Z,65535.0
2019-06-01T06:30:01.097Z,65535.0
2019-06-01T06:42:01.510Z,65367.8
2019-06-01T06:43:01.093Z,65214.8
2019-06-01T06:45:03.470Z,65214.8
2019-06-01T06:46:01.093Z,64137.3
2019-06-01T06:47:01.236Z,62677.6
2019-06-01T06:48:01.153Z,62510.0
2019-06-01T06:49:01.097Z,61569.1
2019-06-01T06:50:01.093Z,60017.6
2019-06-01T06:51:01.097Z,59159.3
2019-06-01T06:52:01.258Z,58967.7
2019-06-01T06:53:01.098Z,58666.2
2019-06-01T06:57:01.236Z,58833.4
2019-06-01T06:58:01.105Z,58986.4
2019-06-01T07:00:01.177Z,58986.4
2019-06-01T07:01:01.108Z,60063.9
2019-06-01T07:02:01.250Z,61523.6
2019-06-01T07:03:01.110Z,61691.2
2019-06-01T07:04:12.010Z,62632.1
2019-06-01T07:05:01.101Z,64183.6
2019-06-01T07:06:01.120Z,65041.9
2019-06-01T07:07:01.319Z,65233.5
2019-06-01T07:08:01.116Z,65535.0
2019-06-01T07:15:01.154Z,65535.0
2019-06-01T07:30:01.102Z,65535.0
2019-06-01T07:45:01.196Z,65535.0
2019-06-01T08:00:01.100Z,65535.0
2019-06-01T08:15:01.170Z,65535.0
2019-06-01T08:30:01.108Z,65535.0
2019-06-01T08:45:01.168Z,65535.0
2019-06-01T09:00:01.101Z,65535.0
2019-06-01T09:15:16.098Z,65535.0
2019-06-01T09:30:16.107Z,65535.0
2019-06-01T09:45:16.104Z,65535.0
2019-06-01T10:00:01.226Z,65535.0
2019-06-01T10:15:01.305Z,65535.0
2019-06-01T10:30:01.429Z,65535.0
2019-06-01T10:45:01.387Z,65535.0
2019-06-01T11:00:16.104Z,65535.0
2019-06-01T11:15:01.117Z,65535.0
2019-06-01T11:30:01.352Z,65535.0
2019-06-01T11:45:01.141Z,65535.0
2019-06-01T12:00:16.105Z,65535.0
2019-06-01T12:15:01.109Z,65535.0
2019-06-01T12:30:01.083Z,65535.0
2019-06-01T12:45:01.101Z,65535.0
2019-06-01T13:00:01.096Z,65535.0
2019-06-01T13:15:01.103Z,65535.0
2019-06-01T13:30:01.426Z,65535.0
2019-06-01T13:45:16.094Z,65535.0
2019-06-01T14:00:01.088Z,65535.0
2019-06-01T14:15:01.113Z,65535.0
2019-06-01T14:30:01.101Z,65535.0
2019-06-01T14:45:01.105Z,65535.0
2019-06-01T15:00:01.300Z,65535.0
2019-06-01T15:15:02.394Z,65535.0
2019-06-01T15:30:01.364Z,65535.0
2019-06-01T15:45:01.561Z,65535.0
2019-06-01T16:00:01.231Z,65535.0
2019-06-01T16:15:02.108Z,65535.0
2019-06-01T16:30:01.798Z,65535.0
2019-06-01T16:39:04.504Z,65348.5
2019-06-01T16:40:04.869Z,64771.1
2019-06-01T16:45:01.655Z,64771.1
2019-06-01T16:47:02.709Z,64480.3
2019-06-01T16:48:01.623Z,64097.8
2019-06-01T16:49:01.545Z,63578.3
2019-06-01T16:53:02.086Z,63396.6
2019-06-01T16:54:01.833Z,63113.0
2019-06-01T16:55:02.598Z,63155.7
2019-06-01T16:56:01.987Z,62570.1
2019-06-01T16:58:01.312Z,61976.8
2019-06-01T16:59:02.293Z,61436.6
2019-06-01T17:00:02.544Z,60889.9
2019-06-01T17:01:02.448Z,60712.8
2019-06-01T17:03:01.145Z,61003.6
2019-06-01T17:04:02.550Z,61118.5
2019-06-01T17:05:01.084Z,61201.8
2019-06-01T17:06:01.077Z,60434.1
2019-06-01T17:07:01.107Z,59452.9
2019-06-01T17:08:01.081Z,58278.0
2019-06-01T17:09:01.366Z,57171.7
2019-06-01T17:10:19.028Z,56274.7
2019-06-01T17:11:01.059Z,55454.1
2019-06-01T17:12:01.082Z,54746.7
2019-06-01T17:13:01.580Z,54210.0
2019-06-01T17:14:01.253Z,53963.7
2019-06-01T17:15:01.088Z,54121.3
2019-06-01T17:16:01.093Z,53588.4
2019-06-01T17:17:01.133Z,52375.7
2019-06-01T17:18:04.744Z,50883.7
2019-06-01T17:19:01.246Z,49536.1
2019-06-01T17:20:01.216Z,48306.5
2019-06-01T17:21:01.471Z,47241.4
2019-06-01T17:22:01.484Z,46438.2
2019-06-01T17:23:01.590Z,45779.1
2019-06-01T17:24:01.581Z,45189.2
2019-06-01T17:25:01.784Z,44658.9
2019-06-01T17:26:06.919Z,44090.1
2019-06-01T17:27:02.113Z,43430.8
2019-06-01T17:28:01.086Z,42598.7
2019-06-01T17:29:02.093Z,41405.7
2019-06-01T17:30:04.319Z,39878.5
2019-06-01T17:31:02.263Z,39352.9
2019-06-01T17:32:16.617Z,40565.5
2019-06-01T17:33:02.223Z,42057.5
2019-06-01T17:34:02.406Z,43672.8
2019-06-01T17:35:01.086Z,45338.7
2019-06-01T17:36:01.084Z,47171.5
2019-06-01T17:37:01.105Z,48955.9
2019-06-01T17:38:01.080Z,49669.9
2019-06-01T17:39:01.984Z,49463.0
2019-06-01T17:40:02.442Z,49155.3
2019-06-01T17:41:02.162Z,48861.1
2019-06-01T17:42:02.366Z,48511.5
2019-06-01T17:43:01.417Z,48195.2
2019-06-01T17:44:02.502Z,47902.6
2019-06-01T17:45:01.088Z,47510.3
2019-06-01T17:46:01.086Z,46416.9
2019-06-01T17:47:01.962Z,44106.8
2019-06-01T17:48:14.818Z,41786.2
2019-06-01T17:49:01.966Z,39475.5
2019-06-01T17:50:02.526Z,37175.6
2019-06-01T17:51:02.431Z,34877.5
2019-06-01T17:52:01.767Z,32585.7
2019-06-01T17:53:01.083Z,31434.7
2019-06-01T17:54:02.481Z,31274.1
2019-06-01T17:55:01.089Z,31252.1
2019-06-01T17:56:01.904Z,31248.7
2019-06-01T17:57:01.121Z,31340.3
2019-06-01T17:58:01.575Z,31422.1
2019-06-01T17:59:01.339Z,31506.0
2019-06-01T18:00:01.748Z,31634.7
2019-06-01T18:01:01.859Z,31783.5
2019-06-01T18:02:01.745Z,31908.9
2019-06-01T18:03:01.552Z,32028.7
2019-06-01T18:04:01.721Z,32112.9
2019-06-01T18:05:01.880Z,32142.5
2019-06-01T18:06:01.728Z,32126.2
2019-06-01T18:07:01.735Z,32051.8
2019-06-01T18:08:01.848Z,31907.9
2019-06-01T18:09:01.941Z,31703.6
2019-06-01T18:10:02.393Z,31443.7
2019-06-01T18:11:01.927Z,31145.7
2019-06-01T18:12:01.950Z,30800.4
2019-06-01T18:13:02.272Z,30410.1
2019-06-01T18:14:02.084Z,29974.1
2019-06-01T18:15:02.250Z,29492.3
2019-06-01T18:16:02.980Z,28987.7
2019-06-01T18:17:02.110Z,28464.6
2019-06-01T18:18:02.272Z,27922.0
2019-06-01T18:19:02.139Z,27376.7
2019-06-01T18:20:02.389Z,26846.7
2019-06-01T18:21:02.217Z,26323.1
2019-06-01T18:22:01.131Z,25816.1
2019-06-01T18:23:02.270Z,25329.6
2019-06-01T18:24:03.195Z,24851.7
2019-06-01T18:25:02.390Z,24384.5
2019-06-01T18:26:02.406Z,23921.9
2019-06-01T18:27:02.126Z,23466.5
2019-06-01T18:28:02.434Z,23020.9
2019-06-01T18:30:01.074Z,22584.5
2019-06-01T18:31:01.075Z,22171.2
2019-06-01T18:32:01.075Z,21761.1
2019-06-01T18:33:01.122Z,21349.1
2019-06-01T18:34:01.288Z,20948.0
2019-06-01T18:35:01.084Z,20551.7
2019-06-01T18:36:01.076Z,20157.5
2019-06-01T18:37:01.078Z,19771.5
2019-06-01T18:38:01.081Z,19388.7
2019-06-01T18:39:01.220Z,19003.4
2019-06-01T18:40:01.080Z,18615.0
2019-06-01T18:41:10.504Z,18223.7
2019-06-01T18:42:01.078Z,17829.5
2019-06-01T18:43:01.111Z,17436.2
2019-06-01T18:44:01.283Z,17038.6
2019-06-01T18:45:01.081Z,16646.5
2019-06-01T18:46:01.083Z,16249.1
2019-06-01T18:47:01.082Z,15856.0
2019-06-01T18:48:01.117Z,15473.8
2019-06-01T18:49:01.299Z,15100.5
2019-06-01T18:50:01.098Z,14737.8
2019-06-01T18:51:01.083Z,14392.7
2019-06-01T18:52:01.082Z,14073.4
2019-06-01T18:53:01.261Z,13785.4
2019-06-01T18:54:01.223Z,13531.2
2019-06-01T18:55:01.095Z,13314.1
2019-06-01T18:56:01.086Z,13135.6
2019-06-01T18:57:10.706Z,12994.8
2019-06-01T18:58:01.081Z,12887.6
2019-06-01T18:59:01.227Z,12810.8
2019-06-01T19:00:01.093Z,12762.2
2019-06-01T19:01:01.081Z,12739.7
2019-06-01T19:02:01.089Z,12739.6
2019-06-01T19:03:06.971Z,12755.9
2019-06-01T19:04:01.272Z,12783.2
2019-06-01T19:05:01.082Z,12812.9
2019-06-01T19:06:01.085Z,12837.9
2019-06-01T19:07:01.084Z,12850.0
2019-06-01T19:08:01.114Z,12846.3
2019-06-01T19:09:01.233Z,12824.7
2019-06-01T19:10:01.089Z,12782.7
2019-06-01T19:11:01.083Z,12721.8
2019-06-01T19:12:01.084Z,12645.5
2019-06-01T19:13:01.120Z,12553.3
2019-06-01T19:14:01.228Z,12442.3
2019-06-01T19:15:01.096Z,12309.6
2019-06-01T19:16:01.093Z,12152.1
2019-06-01T19:17:01.123Z,11966.7
2019-06-01T19:18:01.087Z,11755.5
2019-06-01T19:19:01.229Z,11523.0
2019-06-01T19:20:06.530Z,11273.8
2019-06-01T19:21:01.083Z,11010.4
2019-06-01T19:22:01.100Z,10735.1
2019-06-01T19:23:01.092Z,10447.1
2019-06-01T19:24:01.222Z,10146.7
2019-06-01T19:25:01.087Z,9835.3
2019-06-01T19:26:01.086Z,9515.3
2019-06-01T19:27:01.089Z,9192.2
2019-06-01T19:28:01.083Z,8872.3
2019-06-01T19:29:01.267Z,8554.3
2019-06-01T19:30:01.094Z,8233.0
2019-06-01T19:31:01.091Z,7907.0
2019-06-01T19:32:01.097Z,7580.5
2019-06-01T19:33:01.098Z,7256.2
2019-06-01T19:34:01.261Z,6935.9
2019-06-01T19:35:01.103Z,6617.3
2019-06-01T19:36:01.097Z,6300.9
2019-06-01T19:37:01.096Z,5988.1
2019-06-01T19:38:01.095Z,5681.9
2019-06-01T19:39:01.330Z,5382.8
2019-06-01T19:40:01.090Z,5090.5
2019-06-01T19:41:01.095Z,4802.2
2019-06-01T19:42:01.091Z,4512.5
2019-06-01T19:44:01.410Z,4208.8
2019-06-01T19:45:01.085Z,3908.5
2019-06-01T19:46:01.081Z,3620.1
2019-06-01T19:47:01.081Z,3347.9
2019-06-01T19:48:01.084Z,3093.1
2019-06-01T19:49:01.257Z,2857.6
2019-06-01T19:50:01.079Z,2644.1
2019-06-01T19:51:01.077Z,2455.5
2019-06-01T19:52:01.079Z,2289.6
2019-06-01T19:53:01.093Z,2143.1
2019-06-01T19:54:01.309Z,2012.3
2019-06-01T19:55:01.155Z,1892.5
2019-06-01T19:56:01.080Z,1779.7
2019-06-01T19:57:01.081Z,1672.1
2019-06-01T19:58:01.087Z,1568.8
2019-06-01T19:59:01.220Z,1480.3
2019-06-01T20:00:01.082Z,1395.3
2019-06-01T20:01:01.082Z,1313.8
2019-06-01T20:02:01.086Z,1235.3
2019-06-01T20:03:01.088Z,1157.9
2019-06-01T20:04:01.255Z,1078.8
2019-06-01T20:05:01.119Z,996.9
2019-06-01T20:06:01.084Z,913.0
2019-06-01T20:07:01.085Z,829.4
2019-06-01T20:08:01.084Z,748.9
2019-06-01T20:09:01.294Z,673.3
2019-06-01T20:10:01.257Z,604.6
2019-06-01T20:11:01.117Z,544.0
2019-06-01T20:12:02.658Z,491.2
2019-06-01T20:13:01.089Z,445.3
2019-06-01T20:14:01.296Z,404.6
2019-06-01T20:15:01.112Z,367.9
2019-06-01T20:16:06.098Z,334.3
2019-06-01T20:17:01.091Z,303.5
2019-06-01T20:18:01.092Z,275.2
2019-06-01T20:19:01.369Z,249.3
2019-06-01T20:20:01.115Z,225.6
2019-06-01T20:21:06.105Z,203.9
2019-06-01T20:22:01.088Z,184.2
2019-06-01T20:23:01.230Z,166.3
2019-06-01T20:24:01.360Z,149.9
2019-06-01T20:25:01.092Z,135.1
2019-06-01T20:26:01.096Z,121.7
2019-06-01T20:27:01.118Z,109.5
2019-06-01T20:28:01.089Z,98.5
2019-06-01T20:29:01.363Z,88.6
2019-06-01T20:30:01.094Z,79.6
2019-06-01T20:31:01.095Z,71.5
2019-06-01T20:32:06.097Z,64.1
2019-06-01T20:33:01.101Z,57.5
2019-06-01T20:34:01.458Z,51.6
2019-06-01T20:35:01.264Z,46.2
2019-06-01T20:36:01.094Z,41.4
2019-06-01T20:37:06.095Z,37.1
2019-06-01T20:38:01.095Z,33.3
2019-06-01T20:39:04.148Z,29.9
2019-06-01T20:40:01.097Z,26.9
2019-06-01T20:41:01.099Z,24.1
2019-06-01T20:42:17.138Z,21.7
2019-06-01T20:44:01.418Z,19.5
2019-06-01T20:45:01.095Z,17.5
2019-06-01T20:46:01.093Z,15.7
2019-06-01T20:47:01.084Z,14.1
2019-06-01T20:48:01.115Z,12.6
2019-06-01T20:49:01.479Z,11.3
2019-06-01T20:50:01.085Z,10.1
2019-06-01T20:51:01.088Z,9.1
2019-06-01T20:52:01.085Z,8.2
2019-06-01T20:53:06.087Z,7.3
2019-06-01T20:54:01.487Z,6.6
2019-06-01T20:55:01.087Z,5.9
2019-06-01T20:56:01.091Z,5.3
2019-06-01T20:57:01.087Z,4.7
2019-06-01T20:58:01.119Z,4.3
2019-06-01T20:59:01.431Z,3.9
2019-06-01T21:00:01.095Z,3.5
2019-06-01T21:01:01.100Z,3.2
2019-06-01T21:02:01.093Z,2.9
2019-06-01T21:03:01.087Z,2.6
2019-06-01T21:04:01.290Z,2.3
2019-06-01T21:05:01.085Z,2.1
2019-06-01T21:06:01.087Z,1.9
2019-06-01T21:07:01.089Z,1.7
2019-06-01T21:08:01.092Z,1.6
2019-06-01T21:09:01.264Z,1.5
2019-06-01T21:10:01.106Z,1.3
2019-06-01T21:12:01.092Z,1.2
2019-06-01T21:13:01.095Z,1.1
2019-06-01T21:14:01.342Z,0.9
2019-06-01T21:15:01.100Z,0.8
2019-06-01T21:16:01.093Z,0.7
2019-06-01T21:18:01.095Z,0.6
2019-06-01T21:19:01.338Z,0.5
2019-06-01T21:21:01.094Z,0.4
2019-06-01T21:22:01.094Z,0.3
2019-06-01T21:24:01.408Z,0.2
2019-06-01T21:25:01.094Z,0.1
